This is the latest recevied weather packets stored in our database for station/object DH9SB-6. If no packets are shown the sender has not sent any weather packets the latest 1 day(s).
| Time | Temp. | Humidity | Pressure | Rain* | Wind** | Luminosity | Snow |
|---|---|---|---|---|---|---|---|
| 1778099864 | 12.22° C | 95% | - | 3.81 mm | - | - | - |
| 1778098089 | 12.22° C | 94% | - | 3.05 mm | - | - | - |
| 1778096262 | 12.78° C | 91% | - | 1.02 mm | - | - | - |
| 1778095690 | 12.78° C | 90% | - | 1.02 mm | - | - | - |
| 1778095063 | 12.22° C | 93% | - | 0.51 mm | - | - | - |
| 1778093870 | 12.78° C | 90% | - | 0.25 mm | - | - | - |
| 1778093286 | 12.78° C | 90% | - | 0.51 mm | - | - | - |
| 1778089688 | 12.78° C | 89% | - | 0.25 mm | - | - | - |
| 1778089066 | 12.78° C | 89% | - | 0.51 mm | - | - | - |
| 1778088487 | 12.78° C | 89% | - | 0.51 mm | - | - | - |
| 1778087863 | 13.33° C | 89% | - | 1.02 mm | - | - | - |
| 1778086664 | 13.33° C | 88% | - | 1.27 mm | - | - | - |
| 1778083687 | 13.33° C | 86% | - | 1.02 mm | - | - | - |
| 1778083063 | 13.33° C | 85% | - | 1.02 mm | - | - | - |
| 1778081862 | 13.33° C | 85% | - | 1.52 mm | - | - | - |
| 1778080663 | 13.33° C | 83% | - | 1.52 mm | - | - | - |
| 1778080087 | 13.33° C | 82% | - | 1.27 mm | - | - | - |
| 1778079463 | 13.89° C | 81% | - | 1.02 mm | - | - | - |
| 1778078887 | 15° C | 78% | - | 0.25 mm | - | - | - |
| 1778078263 | 15.56° C | 73% | - | 0 mm | - | - | - |
| 1778077351 | 16.67° C | 66% | - | 0 mm | - | - | - |
| 1778076775 | 17.22° C | 63% | - | 0 mm | - | - | - |
| 1778076152 | 17.22° C | 61% | - | 0 mm | - | - | - |
| 1778074951 | 18.33° C | 58% | - | 0 mm | - | - | - |
| 1778074376 | 18.33° C | 55% | - | 0 mm | - | - | - |
* Rain latest hour (hover to see other rain measurements)
** Current wind speed in m/s (hover to see current wind gust speed)